GVNP

Praia International Airport

Praia, Cape Verde
METAR GVNP 171800Z 04014KT 9999 SCT017 30/22 Q1014 NOSIG
Observed Flight Rules
Oct-17 @ 18:00 UTC (21 minutes ago) Visual Flight Rules
Wind Visibility Clouds
40° at 14 knots 10,000+ meters
  • Scattered at 1,700' AGL
Temperatures Readings
Current 30°C / 86°F
Dewpoint 22°C / 72°F
Humidity 62%
Altimeter 29.94" Hg
Pressure 1014 hPa
Elevation 70
METAR GVNP 171800Z 04014KT 9999 SCT017 30/22 Q1014 NOSIG
Observed Flight Rules
Oct-17 @ 18:00 UTC
(21 minutes ago)
VFR
Wind Visibility
40° at 14 knots 10,000+ meters
Clouds
  • Scattered at 1,700' AGL
Temperature Dewpoint
30°C / 86°F 22°C / 72°F
Humidity Altimeter Pressure
62% 29.94" Hg 1014 hPa